createdAt,value
2018-12-13T00:01:49.591Z,102810.19
2018-12-13T00:04:26.248Z,102806.45
2018-12-13T00:06:55.508Z,102812.32
2018-12-13T00:09:24.764Z,102806.81
2018-12-13T00:11:54.071Z,102800.40
2018-12-13T00:14:23.301Z,102801.02
2018-12-13T00:16:52.606Z,102795.15
2018-12-13T00:19:21.855Z,102799.65
2018-12-13T00:21:51.206Z,102797.19
2018-12-13T00:24:20.416Z,102794.36
2018-12-13T00:26:49.848Z,102795.47
2018-12-13T00:29:19.812Z,102795.20
2018-12-13T00:31:49.920Z,102792.04
2018-12-13T00:34:26.672Z,102793.78
2018-12-13T00:36:55.952Z,102789.78
2018-12-13T00:39:25.199Z,102789.40
2018-12-13T00:41:54.532Z,102788.75
2018-12-13T00:44:23.779Z,102785.17
2018-12-13T00:46:53.087Z,102790.48
2018-12-13T00:49:22.411Z,102790.92
2018-12-13T00:51:51.667Z,102788.82
2018-12-13T00:54:20.946Z,102788.46
2018-12-13T00:56:50.210Z,102789.00
2018-12-13T00:59:20.645Z,102794.38
2018-12-13T01:01:50.625Z,102795.75
2018-12-13T01:04:20.677Z,102793.86
2018-12-13T01:06:50.654Z,102795.40
2018-12-13T01:09:20.703Z,102790.97
2018-12-13T01:11:50.708Z,102793.33
2018-12-13T01:14:21.698Z,102796.69
2018-12-13T01:16:50.965Z,102793.60
2018-12-13T01:19:20.696Z,102799.20
2018-12-13T01:21:50.834Z,102795.13
2018-12-13T01:24:20.667Z,102792.48
2018-12-13T01:26:50.816Z,102796.70
2018-12-13T01:29:20.715Z,102795.59
2018-12-13T01:31:50.998Z,102800.36
2018-12-13T01:34:20.729Z,102806.61
2018-12-13T01:36:52.557Z,102793.97
2018-12-13T01:39:22.167Z,102797.50
2018-12-13T01:41:51.456Z,102799.34
2018-12-13T01:44:21.074Z,102794.95
2018-12-13T01:46:51.116Z,102805.84
2018-12-13T01:49:27.643Z,102800.61
2018-12-13T01:51:58.925Z,102797.12
2018-12-13T01:54:28.304Z,102803.75
2018-12-13T01:56:57.585Z,102802.56
2018-12-13T01:59:26.877Z,102799.30
2018-12-13T02:01:56.241Z,102798.63
2018-12-13T02:04:25.534Z,102799.11
2018-12-13T02:06:58.634Z,102794.52
2018-12-13T02:09:26.205Z,102792.89
2018-12-13T02:11:55.484Z,102794.80
2018-12-13T02:14:24.719Z,102791.89
2018-12-13T02:16:54.226Z,102790.11
2018-12-13T02:19:23.496Z,102785.61
2018-12-13T02:21:52.822Z,102788.05
2018-12-13T02:24:22.971Z,102786.89
2018-12-13T02:26:52.961Z,102783.36
2018-12-13T02:29:22.911Z,102780.69
2018-12-13T02:31:59.488Z,102781.73
2018-12-13T02:34:28.833Z,102780.07
2018-12-13T02:36:58.110Z,102777.11
2018-12-13T02:39:27.440Z,102776.69
2018-12-13T02:42:00.514Z,102780.03
2018-12-13T02:44:29.830Z,102770.27
2018-12-13T02:46:59.100Z,102772.69
2018-12-13T02:49:28.446Z,102767.64
2018-12-13T02:51:57.804Z,102770.14
2018-12-13T02:54:27.062Z,102763.03
2018-12-13T02:56:56.390Z,102762.73
2018-12-13T02:59:25.698Z,102758.20
2018-12-13T03:01:54.963Z,102759.41
2018-12-13T03:04:24.237Z,102756.51
2018-12-13T03:06:54.379Z,102758.55
2018-12-13T03:09:24.211Z,102762.31
2018-12-13T03:11:54.266Z,102757.41
2018-12-13T03:14:24.266Z,102757.94
2018-12-13T03:16:54.794Z,102755.13
2018-12-13T03:19:24.682Z,102755.48
2018-12-13T03:21:54.578Z,102750.67
2018-12-13T03:24:24.722Z,102753.30
2018-12-13T03:26:54.603Z,102751.47
2018-12-13T03:29:24.794Z,102749.89
2018-12-13T03:31:58.277Z,102755.41
2018-12-13T03:34:27.651Z,102747.58
2018-12-13T03:36:56.916Z,102749.71
2018-12-13T03:39:26.225Z,102749.31
2018-12-13T03:41:55.482Z,102746.36
2018-12-13T03:44:24.877Z,102745.79
2018-12-13T03:46:54.976Z,102744.59
2018-12-13T03:49:24.782Z,102740.78
2018-12-13T03:51:54.841Z,102739.10
2018-12-13T03:54:24.727Z,102729.61
2018-12-13T03:56:55.003Z,102732.91
2018-12-13T03:59:24.787Z,102731.56
2018-12-13T04:01:54.840Z,102726.61
2018-12-13T04:04:24.836Z,102717.48
2018-12-13T04:06:54.847Z,102717.04
2018-12-13T04:09:24.754Z,102715.91
2018-12-13T04:11:54.895Z,102718.51
2018-12-13T04:14:24.843Z,102715.19
2018-12-13T04:16:54.835Z,102714.81
2018-12-13T04:19:24.962Z,102715.80
2018-12-13T04:21:54.886Z,102708.39
2018-12-13T04:24:24.192Z,102705.38
2018-12-13T04:26:53.468Z,102705.41
2018-12-13T04:29:22.798Z,102707.14
2018-12-13T04:31:52.076Z,102700.09
2018-12-13T04:34:21.402Z,102701.47
2018-12-13T04:36:50.701Z,102701.47
2018-12-13T04:39:19.996Z,102706.88
2018-12-13T04:41:49.334Z,102700.58
2018-12-13T04:44:18.601Z,102703.18
2018-12-13T04:46:47.908Z,102703.77
2018-12-13T04:49:17.139Z,102699.65
2018-12-13T04:51:46.533Z,102702.20
2018-12-13T04:54:15.817Z,102699.32
2018-12-13T04:56:45.138Z,102703.64
2018-12-13T04:59:14.465Z,102699.86
2018-12-13T05:01:44.030Z,102699.95
2018-12-13T05:04:13.327Z,102702.30
2018-12-13T05:06:42.639Z,102702.97
2018-12-13T05:09:11.964Z,102704.57
2018-12-13T05:11:46.956Z,102698.13
2018-12-13T05:14:16.240Z,102704.64
2018-12-13T05:16:45.494Z,102705.30
2018-12-13T05:19:14.786Z,102698.41
2018-12-13T05:21:44.060Z,102696.97
2018-12-13T05:24:13.344Z,102689.06
2018-12-13T05:26:42.621Z,102692.23
2018-12-13T05:29:11.905Z,102697.69
2018-12-13T05:31:41.244Z,102693.80
2018-12-13T05:34:10.534Z,102693.81
2018-12-13T05:36:39.809Z,102686.85
2018-12-13T05:39:09.204Z,102686.08
2018-12-13T05:41:39.321Z,102689.60
2018-12-13T05:44:08.580Z,102684.95
2018-12-13T05:46:37.969Z,102678.69
2018-12-13T05:49:07.289Z,102679.23
2018-12-13T05:51:36.639Z,102677.25
2018-12-13T05:54:05.967Z,102678.90
2018-12-13T05:56:35.237Z,102681.22
2018-12-13T05:59:04.580Z,102675.67
2018-12-13T06:01:33.968Z,102667.81
2018-12-13T06:04:03.266Z,102667.92
2018-12-13T06:06:32.542Z,102670.02
2018-12-13T06:09:01.793Z,102668.23
2018-12-13T06:11:31.146Z,102670.52
2018-12-13T06:14:00.400Z,102674.55
2018-12-13T06:16:29.718Z,102677.66
2018-12-13T06:18:59.003Z,102679.45
2018-12-13T06:21:28.423Z,102675.44
2018-12-13T06:23:57.671Z,102678.66
2018-12-13T06:26:28.208Z,102678.73
2018-12-13T06:28:58.034Z,102681.27
2018-12-13T06:31:28.075Z,102684.80
2018-12-13T06:33:58.016Z,102680.64
2018-12-13T06:36:28.013Z,102684.08
2018-12-13T06:38:58.119Z,102693.19
2018-12-13T06:41:28.257Z,102693.04
2018-12-13T06:43:58.188Z,102699.05
2018-12-13T06:46:28.118Z,102690.35
2018-12-13T06:48:58.101Z,102684.02
2018-12-13T06:51:28.153Z,102694.97
2018-12-13T06:53:58.603Z,102700.05
2018-12-13T06:56:28.633Z,102692.80
2018-12-13T06:58:58.439Z,102702.73
2018-12-13T07:01:28.445Z,102706.23
2018-12-13T07:03:58.506Z,102701.17
2018-12-13T07:06:28.510Z,102700.17
2018-12-13T07:08:58.690Z,102701.45
2018-12-13T07:11:28.672Z,102703.83
2018-12-13T07:13:58.640Z,102685.13
2018-12-13T07:16:28.714Z,102691.97
2018-12-13T07:18:58.643Z,102691.52
2018-12-13T07:21:28.720Z,102687.42
2018-12-13T07:23:58.796Z,102687.27
2018-12-13T07:26:28.724Z,102687.95
2018-12-13T07:28:58.763Z,102692.96
2018-12-13T07:31:28.793Z,102688.53
2018-12-13T07:33:58.844Z,102694.39
2018-12-13T07:36:28.841Z,102697.05
2018-12-13T07:38:58.793Z,102686.47
2018-12-13T07:41:28.849Z,102690.34
2018-12-13T07:43:58.833Z,102682.12
2018-12-13T07:46:28.773Z,102681.86
2018-12-13T07:48:58.784Z,102683.42
2018-12-13T07:51:29.076Z,102680.03
2018-12-13T07:53:58.856Z,102684.58
2018-12-13T07:56:29.357Z,102681.11
2018-12-13T07:58:58.917Z,102676.81
2018-12-13T08:01:28.884Z,102676.70
2018-12-13T08:03:59.046Z,102680.88
2018-12-13T08:06:28.857Z,102676.28
2018-12-13T08:08:58.878Z,102682.22
2018-12-13T08:11:29.320Z,102685.34
2018-12-13T08:13:58.844Z,102677.56
2018-12-13T08:16:29.040Z,102681.42
2018-12-13T08:18:59.093Z,102678.23
2018-12-13T08:21:29.066Z,102679.41
2018-12-13T08:23:59.110Z,102684.20
2018-12-13T08:26:29.016Z,102680.55
2018-12-13T08:34:02.290Z,102676.30
2018-12-13T08:36:31.530Z,102679.97
2018-12-13T08:39:00.841Z,102678.27
2018-12-13T08:41:30.112Z,102680.64
2018-12-13T08:43:59.382Z,102684.97
2018-12-13T08:46:29.384Z,102688.69
2018-12-13T08:48:59.439Z,102687.02
2018-12-13T08:51:29.515Z,102690.44
2018-12-13T08:53:59.406Z,102688.13
2018-12-13T08:56:28.718Z,102689.64
2018-12-13T08:58:57.982Z,102681.41
2018-12-13T09:01:27.303Z,102681.48
2018-12-13T09:03:57.052Z,102682.83
2018-12-13T09:06:26.318Z,102685.88
2018-12-13T09:08:55.649Z,102687.46
2018-12-13T09:11:24.896Z,102686.16
2018-12-13T09:13:54.187Z,102678.53
2018-12-13T09:16:23.476Z,102683.41
2018-12-13T09:18:52.799Z,102680.99
2018-12-13T09:21:22.085Z,102685.72
2018-12-13T09:23:51.468Z,102680.33
2018-12-13T09:26:20.810Z,102674.31
2018-12-13T09:28:50.299Z,102675.30
2018-12-13T09:31:19.591Z,102672.90
2018-12-13T09:33:48.898Z,102670.17
2018-12-13T09:36:18.170Z,102671.70
2018-12-13T09:38:47.498Z,102669.89
2018-12-13T09:41:16.864Z,102670.67
2018-12-13T09:43:46.099Z,102668.20
2018-12-13T09:46:15.459Z,102668.81
2018-12-13T09:48:44.875Z,102669.61
2018-12-13T09:51:14.423Z,102665.41
2018-12-13T09:53:43.669Z,102663.70
2018-12-13T09:56:12.955Z,102665.09
2018-12-13T09:58:42.247Z,102656.01
2018-12-13T10:01:11.606Z,102666.97
2018-12-13T10:03:40.922Z,102672.64
2018-12-13T10:06:10.204Z,102663.22
2018-12-13T10:08:39.571Z,102667.17
2018-12-13T10:11:08.866Z,102657.50
2018-12-13T10:13:38.505Z,102659.27
2018-12-13T10:16:07.945Z,102655.08
2018-12-13T10:18:37.312Z,102653.83
2018-12-13T10:21:06.687Z,102647.53
2018-12-13T10:23:36.006Z,102647.23
2018-12-13T10:26:05.508Z,102641.23
2018-12-13T10:28:34.800Z,102641.37
2018-12-13T10:31:04.315Z,102636.84
2018-12-13T10:33:33.655Z,102634.38
2018-12-13T10:36:03.024Z,102635.76
2018-12-13T10:38:32.391Z,102637.34
2018-12-13T10:41:01.761Z,102635.66
2018-12-13T10:43:31.580Z,102638.61
2018-12-13T10:46:01.618Z,102638.47
2018-12-13T10:48:31.624Z,102628.80
2018-12-13T10:51:01.595Z,102638.72
2018-12-13T10:53:31.572Z,102635.16
2018-12-13T10:56:02.135Z,102635.41
2018-12-13T10:58:32.646Z,102640.59
2018-12-13T11:01:07.779Z,102637.22
2018-12-13T11:03:37.196Z,102639.48
2018-12-13T11:06:06.680Z,102641.04
2018-12-13T11:08:36.115Z,102637.15
2018-12-13T11:11:05.584Z,102641.67
2018-12-13T11:13:34.895Z,102642.25
2018-12-13T11:16:04.198Z,102642.22
2018-12-13T11:18:33.476Z,102637.06
2018-12-13T11:21:02.784Z,102634.45
2018-12-13T11:23:32.896Z,102626.69
2018-12-13T11:26:02.872Z,102632.21
2018-12-13T11:29:16.158Z,102631.61
2018-12-13T11:31:45.889Z,102624.16
2018-12-13T11:34:15.211Z,102622.25
2018-12-13T11:36:44.581Z,102619.69
2018-12-13T11:39:13.909Z,102616.47
2018-12-13T11:41:43.199Z,102617.27
2018-12-13T11:44:12.520Z,102611.64
2018-12-13T11:46:42.294Z,102610.53
2018-12-13T11:49:12.275Z,102603.38
2018-12-13T11:51:41.893Z,102604.81
2018-12-13T11:54:29.670Z,102604.62
2018-12-13T11:56:58.938Z,102596.51
2018-12-13T11:59:28.298Z,102593.66
2018-12-13T12:01:57.848Z,102589.45
2018-12-13T12:04:27.211Z,102585.97
2018-12-13T12:06:56.510Z,102585.02
2018-12-13T12:09:25.776Z,102587.17
2018-12-13T12:11:55.157Z,102585.69
2018-12-13T12:14:24.486Z,102579.06
2018-12-13T12:16:53.870Z,102579.94
2018-12-13T12:19:23.179Z,102576.27
2018-12-13T12:21:52.479Z,102575.73
2018-12-13T12:24:21.725Z,102562.41
2018-12-13T12:26:51.075Z,102564.23
2018-12-13T12:29:20.408Z,102566.58
2018-12-13T12:31:49.732Z,102571.81
2018-12-13T12:34:19.109Z,102566.94
2018-12-13T12:36:48.368Z,102563.09
2018-12-13T12:39:18.759Z,102567.05
2018-12-13T12:41:48.296Z,102564.78
2018-12-13T12:44:17.650Z,102567.38
2018-12-13T12:46:46.964Z,102567.89
2018-12-13T12:49:16.324Z,102571.83
2018-12-13T12:51:45.703Z,102566.34
2018-12-13T12:54:14.998Z,102561.51
2018-12-13T12:56:44.370Z,102565.09
2018-12-13T12:59:13.783Z,102564.97
2018-12-13T13:01:43.232Z,102557.11
2018-12-13T13:04:12.551Z,102549.91
2018-12-13T13:06:42.287Z,102555.51
2018-12-13T13:09:11.625Z,102551.06
2018-12-13T13:11:41.011Z,102543.96
2018-12-13T13:14:10.366Z,102544.73
2018-12-13T13:16:39.840Z,102542.34
2018-12-13T13:19:09.165Z,102543.25
2018-12-13T13:21:38.443Z,102549.83
2018-12-13T13:24:07.816Z,102535.06
2018-12-13T13:26:37.176Z,102540.62
2018-12-13T13:29:06.603Z,102540.41
2018-12-13T13:31:35.928Z,102536.91
2018-12-13T13:34:05.955Z,102533.39
2018-12-13T13:36:36.025Z,102531.02
2018-12-13T13:39:08.438Z,102532.09
2018-12-13T13:41:37.747Z,102534.04
2018-12-13T13:44:07.061Z,102528.94
2018-12-13T13:46:37.125Z,102529.20
2018-12-13T13:49:07.087Z,102530.77
2018-12-13T13:51:37.270Z,102533.21
2018-12-13T13:54:07.146Z,102534.50
2018-12-13T13:56:37.181Z,102532.50
2018-12-13T13:59:07.144Z,102524.69
2018-12-13T14:01:37.118Z,102532.99
2018-12-13T14:04:07.371Z,102531.50
2018-12-13T14:06:37.120Z,102522.36
2018-12-13T14:09:08.695Z,102521.84
2018-12-13T14:11:38.431Z,102518.42
2018-12-13T14:14:07.938Z,102511.84
2018-12-13T14:16:37.411Z,102506.65
2018-12-13T14:19:07.432Z,102509.58
2018-12-13T14:21:37.339Z,102509.15
2018-12-13T14:24:07.351Z,102516.07
2018-12-13T14:26:37.474Z,102501.06
2018-12-13T14:29:07.541Z,102504.23
2018-12-13T14:31:37.482Z,102504.16
2018-12-13T14:34:07.532Z,102508.11
2018-12-13T14:36:38.889Z,102506.34
2018-12-13T14:39:08.666Z,102503.91
2018-12-13T14:41:37.984Z,102503.09
2018-12-13T14:44:07.659Z,102509.82
2018-12-13T14:46:37.500Z,102512.00
2018-12-13T14:49:07.468Z,102504.95
2018-12-13T14:51:37.571Z,102504.41
2018-12-13T14:54:07.928Z,102509.66
2018-12-13T14:56:37.857Z,102510.58
2018-12-13T14:59:07.876Z,102510.91
2018-12-13T15:01:37.835Z,102516.08
2018-12-13T15:04:07.904Z,102517.45
2018-12-13T15:06:38.351Z,102512.86
2018-12-13T15:09:08.822Z,102516.19
2018-12-13T15:11:38.388Z,102513.14
2018-12-13T15:14:08.308Z,102512.86
2018-12-13T15:16:38.412Z,102513.72
2018-12-13T15:19:07.722Z,102511.19
2018-12-13T15:21:37.002Z,102510.66
2018-12-13T15:24:06.323Z,102512.42
2018-12-13T15:26:35.620Z,102516.10
2018-12-13T15:29:04.956Z,102508.84
2018-12-13T15:31:34.248Z,102506.98
2018-12-13T15:34:03.683Z,102509.95
2018-12-13T15:36:32.956Z,102507.47
2018-12-13T15:39:02.336Z,102508.20
2018-12-13T15:41:31.582Z,102506.29
2018-12-13T15:44:00.900Z,102501.37
2018-12-13T15:46:30.249Z,102505.41
2018-12-13T15:48:59.511Z,102500.21
2018-12-13T15:51:28.815Z,102499.44
2018-12-13T15:53:58.180Z,102497.69
2018-12-13T15:56:27.557Z,102497.30
2018-12-13T15:58:56.822Z,102492.91
2018-12-13T16:01:26.267Z,102489.66
2018-12-13T16:03:55.618Z,102495.69
2018-12-13T16:06:24.871Z,102492.74
2018-12-13T16:08:54.186Z,102495.19
2018-12-13T16:11:23.458Z,102489.55
2018-12-13T16:13:52.740Z,102494.31
2018-12-13T16:16:22.056Z,102494.39
2018-12-13T16:18:51.470Z,102497.33
2018-12-13T16:21:20.798Z,102495.19
2018-12-13T16:23:50.298Z,102492.95
2018-12-13T16:26:19.691Z,102496.55
2018-12-13T16:28:48.962Z,102497.64
2018-12-13T16:31:18.272Z,102495.98
2018-12-13T16:33:47.518Z,102495.72
2018-12-13T16:36:16.824Z,102500.16
2018-12-13T16:38:46.080Z,102495.70
2018-12-13T16:41:15.383Z,102491.69
2018-12-13T16:43:44.642Z,102496.14
2018-12-13T16:46:13.915Z,102495.94
2018-12-13T16:48:43.216Z,102491.21
2018-12-13T16:51:18.913Z,102491.41
2018-12-13T16:53:48.247Z,102486.66
2018-12-13T16:56:17.879Z,102495.26
2018-12-13T16:58:47.171Z,102485.98
2018-12-13T17:01:16.544Z,102490.44
2018-12-13T17:03:45.862Z,102488.48
2018-12-13T17:06:15.188Z,102485.97
2018-12-13T17:08:44.482Z,102495.13
2018-12-13T17:11:13.877Z,102490.47
2018-12-13T17:13:43.196Z,102493.82
2018-12-13T17:16:12.453Z,102497.05
2018-12-13T17:18:42.234Z,102485.72
2018-12-13T17:21:12.262Z,102489.75
2018-12-13T17:23:42.439Z,102491.72
2018-12-13T17:26:12.579Z,102497.47
2018-12-13T17:28:43.953Z,102496.20
2018-12-13T17:31:13.285Z,102503.48
2018-12-13T17:33:42.548Z,102501.94
2018-12-13T17:36:13.013Z,102503.55
2018-12-13T17:38:42.983Z,102509.17
2018-12-13T17:41:13.147Z,102506.84
2018-12-13T17:43:43.023Z,102503.19
2018-12-13T17:46:13.044Z,102505.95
2018-12-13T17:48:43.512Z,102507.06
2018-12-13T17:51:13.724Z,102513.22
2018-12-13T17:53:43.755Z,102508.95
2018-12-13T17:56:13.617Z,102510.02
2018-12-13T17:58:43.645Z,102509.53
2018-12-13T18:01:14.145Z,102509.32
2018-12-13T18:03:44.019Z,102516.31
2018-12-13T18:06:13.910Z,102516.21
2018-12-13T18:08:44.127Z,102509.93
2018-12-13T18:11:13.951Z,102517.89
2018-12-13T18:13:43.943Z,102524.22
2018-12-13T18:16:14.396Z,102523.28
2018-12-13T18:18:44.293Z,102522.30
2018-12-13T18:21:14.296Z,102524.38
2018-12-13T18:23:44.409Z,102526.09
2018-12-13T18:26:14.447Z,102522.45
2018-12-13T18:28:44.886Z,102527.93
2018-12-13T18:31:14.887Z,102527.36
2018-12-13T18:33:44.970Z,102529.16
2018-12-13T18:36:14.893Z,102529.06
2018-12-13T18:38:44.872Z,102524.19
2018-12-13T18:41:15.030Z,102520.73
2018-12-13T18:43:45.209Z,102518.47
2018-12-13T18:46:15.224Z,102525.28
2018-12-13T18:48:45.156Z,102526.88
2018-12-13T18:51:15.144Z,102530.83
2018-12-13T18:53:45.318Z,102528.01
2018-12-13T18:56:15.388Z,102532.48
2018-12-13T18:58:45.512Z,102530.33
2018-12-13T19:01:15.378Z,102527.80
2018-12-13T19:03:45.419Z,102528.94
2018-12-13T19:06:15.482Z,102529.39
2018-12-13T19:08:45.613Z,102531.75
2018-12-13T19:11:15.811Z,102534.75
2018-12-13T19:13:45.539Z,102536.27
2018-12-13T19:16:15.675Z,102534.89
2018-12-13T19:18:45.512Z,102540.22
2018-12-13T19:21:15.570Z,102540.12
2018-12-13T19:23:45.760Z,102544.97
2018-12-13T19:26:15.677Z,102542.81
2018-12-13T19:28:45.796Z,102547.25
2018-12-13T19:31:15.777Z,102546.17
2018-12-13T19:33:45.568Z,102544.99
2018-12-13T19:36:15.738Z,102545.12
2018-12-13T19:38:45.705Z,102546.47
2018-12-13T19:41:15.764Z,102550.54
2018-12-13T19:43:45.781Z,102547.82
2018-12-13T19:49:25.330Z,102553.02
2018-12-13T19:51:54.701Z,102550.92
2018-12-13T19:54:27.911Z,102547.59
2018-12-13T19:56:57.376Z,102547.23
2018-12-13T19:59:26.711Z,102551.87
2018-12-13T20:01:56.216Z,102545.85
2018-12-13T20:04:25.569Z,102551.89
2018-12-13T20:10:06.152Z,102551.98
2018-12-13T20:12:40.794Z,102564.14
2018-12-13T20:18:18.179Z,102562.94
2018-12-13T20:20:51.956Z,102560.53
2018-12-13T20:23:21.493Z,102565.79
2018-12-13T20:25:50.877Z,102566.02
2018-12-13T20:28:25.260Z,102564.25
2018-12-13T20:30:54.726Z,102557.31
2018-12-13T20:33:24.065Z,102568.00
2018-12-13T20:35:53.402Z,102563.99
2018-12-13T20:38:22.754Z,102559.98
2018-12-13T20:40:52.078Z,102564.13
2018-12-13T20:43:21.570Z,102565.48
2018-12-13T20:45:50.903Z,102566.13
2018-12-13T20:48:20.260Z,102563.72
2018-12-13T20:50:49.550Z,102570.98
2018-12-13T20:53:18.952Z,102575.44
2018-12-13T20:55:48.319Z,102569.39
2018-12-13T20:58:17.610Z,102579.48
2018-12-13T21:00:47.076Z,102575.97
2018-12-13T21:03:16.403Z,102584.25
2018-12-13T21:05:45.766Z,102581.22
2018-12-13T21:08:15.103Z,102581.51
2018-12-13T21:10:44.426Z,102577.53
2018-12-13T21:13:13.736Z,102578.31
2018-12-13T21:15:43.088Z,102581.00
2018-12-13T21:18:12.374Z,102581.08
2018-12-13T21:20:41.900Z,102579.28
2018-12-13T21:23:11.824Z,102577.39
2018-12-13T21:25:41.904Z,102580.72
2018-12-13T21:28:12.101Z,102588.22
2018-12-13T21:30:41.923Z,102585.52
2018-12-13T21:33:11.895Z,102580.13
2018-12-13T21:35:41.954Z,102580.45
2018-12-13T21:38:11.955Z,102581.97
2018-12-13T21:40:41.871Z,102587.09
2018-12-13T21:43:11.181Z,102582.34
2018-12-13T21:45:40.498Z,102576.59
2018-12-13T21:48:09.969Z,102581.39
2018-12-13T21:50:39.347Z,102585.14
2018-12-13T21:53:08.724Z,102584.91
2018-12-13T21:55:38.053Z,102585.59
2018-12-13T21:58:07.414Z,102582.02
2018-12-13T22:00:36.724Z,102586.03
2018-12-13T22:03:06.180Z,102580.72
2018-12-13T22:05:35.461Z,102575.88
2018-12-13T22:08:04.830Z,102579.92
2018-12-13T22:10:34.152Z,102576.89
2018-12-13T22:13:03.503Z,102573.67
2018-12-13T22:15:32.863Z,102578.59
2018-12-13T22:18:02.191Z,102570.34
2018-12-13T22:20:31.634Z,102569.72
2018-12-13T22:23:00.903Z,102583.53
2018-12-13T22:25:30.250Z,102581.86
2018-12-13T22:27:59.563Z,102584.66
2018-12-13T22:30:28.925Z,102582.42
2018-12-13T22:32:58.908Z,102580.96
2018-12-13T22:35:28.218Z,102582.05
2018-12-13T22:37:57.511Z,102581.98
2018-12-13T22:40:26.834Z,102584.38
2018-12-13T22:42:56.188Z,102578.89
2018-12-13T22:45:25.496Z,102579.14
2018-12-13T22:47:54.833Z,102581.91
2018-12-13T22:50:24.105Z,102581.33
2018-12-13T22:52:53.469Z,102579.11
2018-12-13T22:55:22.746Z,102586.14
2018-12-13T22:57:52.104Z,102580.91
2018-12-13T23:00:21.560Z,102593.71
2018-12-13T23:02:50.867Z,102591.12
2018-12-13T23:05:20.278Z,102589.83
2018-12-13T23:07:49.616Z,102589.83
2018-12-13T23:12:53.316Z,102591.35
2018-12-13T23:15:22.657Z,102588.70
2018-12-13T23:17:51.952Z,102596.55
2018-12-13T23:20:21.239Z,102591.97
2018-12-13T23:22:50.532Z,102592.72
2018-12-13T23:25:19.886Z,102592.06
2018-12-13T23:27:49.193Z,102596.37
2018-12-13T23:30:18.662Z,102597.05
2018-12-13T23:32:48.502Z,102593.69
2018-12-13T23:35:17.827Z,102594.66
2018-12-13T23:37:47.095Z,102599.41
2018-12-13T23:40:16.413Z,102598.14
2018-12-13T23:42:45.758Z,102594.34
2018-12-13T23:45:15.591Z,102604.44
2018-12-13T23:47:45.527Z,102597.52
2018-12-13T23:50:15.637Z,102583.79
2018-12-13T23:52:45.551Z,102582.77
2018-12-13T23:55:15.556Z,102582.70
2018-12-13T23:57:45.599Z,102576.97
